Terminal Aerodrome Forecast
Issued by NWS Northern Indiana

Home | Current Version | Previous Version | Graphics & Text | Print | Product List | Glossary On
Versions: 1 2 3 4 5 6 7 8 9 10 11 12 13 14 15 16 17
389
FTUS43 KIWX 141951 AAA
TAFFWA
TAF AMD
KFWA 141951Z 1420/1518 32004KT 4SM BR OVC008
     FM142100 33004KT 5SM BR OVC012
     FM142300 31005KT P6SM OVC040
     FM150400 VRB03KT 6SM BR SCT060 BKN150
      TEMPO 1509/1513 4SM BR=

USA.gov is the U.S. government's official web portal to all federal, state and local government web resources and services.